Time;durP1;ratioP1;P1;durP2;ratioP2;P2;SDS_P1;SDS_P2;PMS_P1;PMS_P2;Temp;Humidity;BMP_temperature;BMP_pressure;BME280_temperature;BME280_humidity;BME280_pressure;Samples;Min_cycle;Max_cycle;Signal;HPM_P1;HPM_P2
2022/03/02 00:00:34;;;;;;;25.25;15.15;;;;;;;5.89;82.60;102804.16;5032010;28;20069;-78
2022/03/02 00:02:59;;;;;;;26.33;17.20;;;;;;;5.89;82.49;102806.78;5049092;28;20218;-78
2022/03/02 00:05:27;;;;;;;26.08;16.55;;;;;;;5.89;82.50;102797.22;5031737;28;20081;-78
2022/03/02 00:07:53;;;;;;;30.38;17.48;;;;;;;5.92;82.64;102807.66;5030904;28;20071;-78
2022/03/02 00:10:18;;;;;;;28.35;18.05;;;;;;;5.91;82.67;102803.34;5042679;28;20112;-78
2022/03/02 00:12:44;;;;;;;25.52;15.65;;;;;;;5.91;82.56;102800.75;5055099;28;20087;-78
2022/03/02 00:15:10;;;;;;;23.55;15.52;;;;;;;5.88;82.12;102805.03;5050128;28;20104;-78
2022/03/02 00:17:35;;;;;;;27.00;17.45;;;;;;;5.87;82.15;102801.53;5050609;28;20042;-78
2022/03/02 00:20:01;;;;;;;26.25;17.60;;;;;;;5.85;82.01;102802.41;5049633;28;20033;-78
2022/03/02 00:22:26;;;;;;;29.75;17.80;;;;;;;5.82;82.03;102795.44;5049847;28;20048;-78
2022/03/02 00:24:51;;;;;;;29.75;17.48;;;;;;;5.82;82.19;102791.97;5011670;28;20052;-79
2022/03/02 00:27:23;;;;;;;28.58;18.92;;;;;;;5.78;81.91;102788.44;5037145;28;20041;-78
2022/03/02 00:29:48;;;;;;;32.63;19.55;;;;;;;5.75;82.00;102796.25;5053641;28;20065;-78
2022/03/02 00:32:14;;;;;;;35.15;20.98;;;;;;;5.73;82.08;102797.91;5050187;28;20041;-78
2022/03/02 00:34:39;;;;;;;32.60;20.10;;;;;;;5.71;82.18;102803.13;5035649;28;20049;-78
2022/03/02 00:37:06;;;;;;;30.55;19.38;;;;;;;5.69;82.03;102806.56;5031164;28;20028;-78
2022/03/02 00:39:31;;;;;;;35.38;19.73;;;;;;;5.66;82.01;102811.75;5015605;28;20128;-78
2022/03/02 00:41:57;;;;;;;31.90;19.30;;;;;;;5.67;82.27;102816.06;5000995;28;20068;-79
2022/03/02 00:44:22;;;;;;;30.20;19.48;;;;;;;5.62;81.91;102805.63;5030804;28;20072;-79
2022/03/02 00:46:48;;;;;;;34.50;22.92;;;;;;;5.56;82.02;102801.22;5002197;28;20047;-78
2022/03/02 00:49:14;;;;;;;33.95;21.10;;;;;;;5.55;82.13;102801.22;5018930;28;20369;-79
2022/03/02 00:51:40;;;;;;;35.92;22.25;;;;;;;5.51;81.94;102802.91;5036489;28;20044;-79
2022/03/02 00:54:05;;;;;;;32.85;20.77;;;;;;;5.48;82.27;102805.47;5018154;28;20049;-79
2022/03/02 00:56:31;;;;;;;35.65;20.98;;;;;;;5.47;82.32;102800.25;5036090;28;20271;-78
2022/03/02 00:58:57;;;;;;;33.55;21.45;;;;;;;5.46;82.57;102788.97;5019985;28;20218;-78
2022/03/02 01:01:22;;;;;;;30.45;19.45;;;;;;;5.49;82.62;102791.59;5019764;28;20057;-79
2022/03/02 01:03:49;;;;;;;30.42;19.75;;;;;;;5.52;82.55;102791.63;5037438;28;20080;-79
2022/03/02 01:06:15;;;;;;;28.05;17.80;;;;;;;5.53;82.75;102782.09;5004074;28;20326;-78
2022/03/02 01:08:40;;;;;;;32.88;21.17;;;;;;;5.52;82.52;102780.38;5020267;28;20041;-78
2022/03/02 01:11:05;;;;;;;31.85;20.15;;;;;;;5.51;82.61;102779.50;5037356;28;20087;-79
2022/03/02 01:13:31;;;;;;;36.80;20.98;;;;;;;5.50;82.64;102775.16;5037679;28;20037;-79
2022/03/02 01:15:56;;;;;;;36.33;21.70;;;;;;;5.47;82.48;102776.84;5037536;28;20041;-78
2022/03/02 01:18:22;;;;;;;37.22;22.77;;;;;;;5.42;82.46;102774.22;5020221;28;20329;-78
2022/03/02 01:20:47;;;;;;;33.85;22.08;;;;;;;5.39;82.55;102774.16;5037421;28;20048;-78
2022/03/02 01:23:13;;;;;;;38.65;22.45;;;;;;;5.38;82.75;102770.72;5023510;28;20013;-79
2022/03/02 01:25:38;;;;;;;31.70;20.05;;;;;;;5.39;82.79;102767.22;5023669;28;20121;-79
2022/03/02 01:28:04;;;;;;;29.20;19.05;;;;;;;5.40;82.71;102762.91;5041534;28;20045;-79
2022/03/02 01:30:29;;;;;;;27.85;17.73;;;;;;;5.44;82.91;102764.72;5041311;28;20256;-78
2022/03/02 01:32:55;;;;;;;36.30;21.98;;;;;;;5.43;83.23;102762.09;5024062;28;20091;-79
2022/03/02 01:35:20;;;;;;;32.35;20.30;;;;;;;5.45;82.79;102765.56;5023200;28;20068;-78
2022/03/02 01:37:46;;;;;;;35.30;21.67;;;;;;;5.42;82.68;102756.03;5041650;28;20104;-79
2022/03/02 01:40:11;;;;;;;37.08;22.95;;;;;;;5.42;82.70;102755.13;5041042;28;20040;-79
2022/03/02 01:42:41;;;;;;;33.75;22.13;;;;;;;5.41;82.22;102749.06;5040987;28;20041;-79
2022/03/02 01:45:08;;;;;;;33.97;21.63;;;;;;;5.38;82.49;102746.44;5022945;28;20079;-79
2022/03/02 01:47:34;;;;;;;32.72;20.45;;;;;;;5.39;82.57;102741.25;5041305;28;20257;-79
2022/03/02 01:50:00;;;;;;;31.52;20.83;;;;;;;5.38;82.58;102742.13;5040207;28;20037;-79
2022/03/02 01:52:26;;;;;;;37.10;21.90;;;;;;;5.38;82.67;102734.34;5023345;28;20033;-79
2022/03/02 01:54:51;;;;;;;33.38;20.95;;;;;;;5.41;82.41;102741.28;5040431;28;20390;-79
2022/03/02 01:57:17;;;;;;;29.73;19.98;;;;;;;5.41;82.39;102732.63;5040295;28;20071;-78
2022/03/02 01:59:42;;;;;;;35.00;20.35;;;;;;;5.38;82.18;102734.34;5040905;28;20148;-78
2022/03/02 02:02:08;;;;;;;31.70;19.02;;;;;;;5.40;82.43;102736.91;5009581;28;20216;-78
2022/03/02 02:04:33;;;;;;;32.47;20.55;;;;;;;5.40;82.41;102729.13;5022923;28;20107;-79
2022/03/02 02:06:59;;;;;;;35.00;21.92;;;;;;;5.39;82.23;102730.00;5022926;28;20041;-79
2022/03/02 02:09:25;;;;;;;27.60;18.02;;;;;;;5.40;82.26;102729.13;5022623;28;20045;-79
2022/03/02 02:11:50;;;;;;;28.92;18.73;;;;;;;5.39;82.27;102730.84;5040008;28;20021;-79
2022/03/02 02:14:16;;;;;;;30.88;19.33;;;;;;;5.39;82.17;102724.81;5040267;28;20045;-78
2022/03/02 02:16:41;;;;;;;36.30;21.38;;;;;;;5.37;82.21;102731.72;5022830;28;20195;-78
2022/03/02 02:19:07;;;;;;;27.40;18.95;;;;;;;5.41;82.22;102730.00;5040001;28;20064;-78
2022/03/02 02:21:32;;;;;;;32.67;19.65;;;;;;;5.41;82.25;102722.22;5022797;28;20037;-78
2022/03/02 02:23:58;;;;;;;28.48;18.50;;;;;;;5.42;82.18;102717.03;4989953;28;20095;-79
2022/03/02 02:26:25;;;;;;;30.45;19.38;;;;;;;5.41;82.06;102717.88;5022103;28;20204;-79
2022/03/02 02:28:50;;;;;;;30.27;20.15;;;;;;;5.40;81.59;102721.31;5021599;28;20064;-79
2022/03/02 02:31:16;;;;;;;29.80;18.35;;;;;;;5.41;82.00;102712.69;5039708;28;20092;-78
2022/03/02 02:33:42;;;;;;;29.60;18.17;;;;;;;5.41;82.09;102709.22;5039503;28;20029;-78
2022/03/02 02:36:08;;;;;;;30.45;18.48;;;;;;;5.43;82.19;102708.38;5002182;28;20040;-79
2022/03/02 02:38:33;;;;;;;24.70;17.00;;;;;;;5.45;82.25;102703.19;5006241;28;20112;-79
2022/03/02 02:40:59;;;;;;;26.02;16.50;;;;;;;5.44;81.98;102691.94;5039416;28;20083;-79
2022/03/02 02:43:25;;;;;;;29.77;17.05;;;;;;;5.46;82.02;102690.22;5039633;28;20048;-79
2022/03/02 02:45:52;;;;;;;28.48;18.52;;;;;;;5.45;82.01;102688.47;5039457;28;20052;-79
2022/03/02 02:48:18;;;;;;;25.80;16.83;;;;;;;5.45;81.85;102685.00;5022463;28;20049;-79
2022/03/02 02:50:44;;;;;;;27.48;17.00;;;;;;;5.45;81.68;102682.41;5039882;28;20037;-79
2022/03/02 02:53:12;;;;;;;28.85;17.30;;;;;;;5.48;82.00;102688.50;5039005;28;20216;-79
2022/03/02 02:55:39;;;;;;;26.75;16.85;;;;;;;5.47;82.02;102683.28;5022137;28;20379;-79
2022/03/02 02:58:05;;;;;;;32.15;21.35;;;;;;;5.41;80.94;102680.66;5039258;28;20045;-79
2022/03/02 03:00:35;;;;;;;29.83;19.02;;;;;;;5.39;80.81;102675.44;5039896;28;20086;-79
2022/03/02 03:03:02;;;;;;;32.92;20.40;;;;;;;5.36;80.79;102683.19;5039037;28;20260;-79
2022/03/02 03:05:30;;;;;;;28.50;17.35;;;;;;;5.37;80.89;102679.75;5005356;28;20100;-79
2022/03/02 03:07:56;;;;;;;31.23;20.23;;;;;;;5.36;81.14;102678.00;5021639;28;20049;-79
2022/03/02 03:10:23;;;;;;;29.75;17.20;;;;;;;5.37;81.16;102671.94;5021655;28;20032;-79
2022/03/02 03:12:49;;;;;;;28.13;16.50;;;;;;;5.38;81.24;102669.38;5038947;28;20040;-79
2022/03/02 03:15:17;;;;;;;25.10;16.17;;;;;;;5.41;81.51;102670.25;5020938;28;20037;-79
2022/03/02 03:17:43;;;;;;;27.73;17.40;;;;;;;5.43;81.65;102666.81;5039485;28;20048;-79
2022/03/02 03:20:11;;;;;;;27.98;17.23;;;;;;;5.42;81.27;102661.59;5021113;28;20485;-79
2022/03/02 03:22:37;;;;;;;33.07;19.73;;;;;;;5.42;81.06;102661.59;5039282;28;20044;-79
2022/03/02 03:25:03;;;;;;;25.00;16.02;;;;;;;5.42;81.11;102669.38;5038376;28;20049;-79
2022/03/02 03:27:29;;;;;;;36.20;21.00;;;;;;;5.37;80.77;102659.81;5021283;28;20351;-79
2022/03/02 03:29:55;;;;;;;29.25;19.15;;;;;;;5.37;80.47;102670.22;5038650;28;20075;-79
2022/03/02 03:32:20;;;;;;;30.92;19.17;;;;;;;5.37;80.69;102664.16;5038638;28;20324;-79
2022/03/02 03:34:46;;;;;;;25.52;16.77;;;;;;;5.37;80.70;102670.22;5038893;28;20049;-79
2022/03/02 03:37:11;;;;;;;25.77;16.15;;;;;;;5.37;80.73;102661.56;5020547;28;20044;-79
2022/03/02 03:39:37;;;;;;;26.42;16.60;;;;;;;5.39;80.83;102662.44;5021195;28;20353;-79
2022/03/02 03:42:03;;;;;;;33.97;20.13;;;;;;;5.37;80.91;102656.34;5020829;28;20085;-77
2022/03/02 03:44:28;;;;;;;30.23;18.77;;;;;;;5.39;80.88;102652.03;5038323;28;20103;-78
2022/03/02 03:46:54;;;;;;;25.15;16.48;;;;;;;5.40;80.68;102656.38;5019902;28;20175;-78
2022/03/02 03:49:19;;;;;;;30.33;18.55;;;;;;;5.38;80.69;102655.47;5020564;28;20072;-78
2022/03/02 03:51:45;;;;;;;27.30;18.15;;;;;;;5.35;80.20;102661.53;5021122;28;20033;-79
2022/03/02 03:54:10;;;;;;;30.08;17.33;;;;;;;5.35;80.46;102652.88;5020373;28;20285;-79
2022/03/02 03:56:36;;;;;;;35.60;21.58;;;;;;;5.32;80.37;102651.09;5020892;28;20051;-79
2022/03/02 03:59:03;;;;;;;30.20;18.63;;;;;;;5.32;80.34;102655.44;5037611;28;20025;-79
2022/03/02 04:01:29;;;;;;;33.00;19.92;;;;;;;5.30;80.21;102646.75;5038276;28;20036;-79
2022/03/02 04:03:54;;;;;;;32.38;19.58;;;;;;;5.29;80.48;102651.06;5038169;28;20104;-79
2022/03/02 04:06:20;;;;;;;34.60;19.92;;;;;;;5.27;80.14;102646.72;5037734;28;20041;-78
2022/03/02 04:08:46;;;;;;;35.83;18.60;;;;;;;5.30;80.47;102649.34;5020542;28;20257;-78
2022/03/02 04:11:11;;;;;;;30.63;17.55;;;;;;;5.30;80.54;102650.22;5037637;28;20036;-79
2022/03/02 04:13:37;;;;;;;28.70;18.08;;;;;;;5.29;80.14;102648.47;5020600;28;20109;-79
2022/03/02 04:16:03;;;;;;;28.67;17.63;;;;;;;5.30;80.34;102638.97;5037496;28;20029;-79
2022/03/02 04:18:31;;;;;;;22.70;14.90;;;;;;;5.32;80.60;102638.13;5020259;28;20228;-79
2022/03/02 04:20:57;;;;;;;28.17;16.27;;;;;;;5.34;80.76;102623.41;5037768;28;20104;-79
2022/03/02 04:23:22;;;;;;;23.48;15.32;;;;;;;5.37;80.89;102628.63;5019979;28;20120;-79
2022/03/02 04:25:49;;;;;;;25.00;15.48;;;;;;;5.36;80.28;102620.81;5037221;28;20041;-79
2022/03/02 04:28:14;;;;;;;27.23;17.08;;;;;;;5.36;80.19;102624.28;5003393;28;20380;-79
2022/03/02 04:30:40;;;;;;;22.52;16.00;;;;;;;5.36;80.25;102618.22;5038120;28;20022;-79
2022/03/02 04:33:06;;;;;;;26.70;16.77;;;;;;;5.37;80.41;102609.59;5019763;28;20025;-79
2022/03/02 04:35:33;;;;;;;24.60;14.93;;;;;;;5.38;80.46;102609.59;5038251;28;20267;-79
2022/03/02 04:37:59;;;;;;;20.70;13.68;;;;;;;5.38;80.54;102617.41;5019437;28;20037;-79
2022/03/02 04:40:24;;;;;;;25.20;15.40;;;;;;;5.40;80.53;102612.19;5003653;28;20108;-79
2022/03/02 04:42:50;;;;;;;23.20;15.80;;;;;;;5.41;80.69;102608.75;5037242;28;20075;-79
2022/03/02 04:45:15;;;;;;;21.20;13.05;;;;;;;5.42;80.58;102607.91;5020236;28;20029;-79
2022/03/02 04:47:42;;;;;;;20.52;13.60;;;;;;;5.43;80.91;102604.44;5020221;28;20049;-79
2022/03/02 04:50:10;;;;;;;18.17;11.98;;;;;;;5.45;81.00;102599.25;5019497;28;20340;-79
2022/03/02 04:52:36;;;;;;;20.65;12.20;;;;;;;5.45;81.13;102592.31;5037893;28;20037;-78
2022/03/02 04:55:07;;;;;;;19.80;12.90;;;;;;;5.45;80.97;102599.25;5003129;28;20280;-78
2022/03/02 04:57:35;;;;;;;20.58;13.75;;;;;;;5.46;81.14;102601.88;5037611;28;20100;-78
2022/03/02 05:00:00;;;;;;;20.92;13.02;;;;;;;5.45;80.83;102597.53;5037110;28;20087;-78
2022/03/02 05:02:26;;;;;;;16.55;12.38;;;;;;;5.45;80.80;102589.72;5037327;28;20071;-78
2022/03/02 05:04:51;;;;;;;19.98;13.15;;;;;;;5.44;80.67;102597.50;5000043;28;20044;-78
2022/03/02 05:07:17;;;;;;;19.40;12.75;;;;;;;5.42;80.08;102596.63;5027327;28;20045;-78
2022/03/02 05:09:43;;;;;;;22.00;14.45;;;;;;;5.40;80.38;102588.81;5037395;28;20348;-79
2022/03/02 05:12:09;;;;;;;19.98;13.88;;;;;;;5.41;80.34;102595.75;5036940;28;20104;-79
2022/03/02 05:14:35;;;;;;;23.08;15.63;;;;;;;5.38;79.85;102591.41;5037655;28;20083;-79
2022/03/02 05:17:00;;;;;;;27.27;15.98;;;;;;;5.37;79.67;102594.88;5013265;28;20042;-79
2022/03/02 05:19:26;;;;;;;30.17;18.23;;;;;;;5.33;78.99;102592.22;5027337;28;20074;-79
2022/03/02 05:21:51;;;;;;;30.85;18.48;;;;;;;5.28;78.40;102591.31;5036930;28;20029;-79
2022/03/02 05:24:16;;;;;;;32.15;19.25;;;;;;;5.27;78.64;102598.22;5037249;28;20063;-79
2022/03/02 05:26:42;;;;;;;29.65;18.60;;;;;;;5.24;78.38;102589.53;5019570;28;20045;-79
2022/03/02 05:29:08;;;;;;;24.15;15.75;;;;;;;5.26;79.04;102593.91;5018905;28;20061;-79
2022/03/02 05:31:34;;;;;;;26.23;16.33;;;;;;;5.29;79.62;102595.63;5037543;28;20233;-79
2022/03/02 05:33:59;;;;;;;24.48;15.65;;;;;;;5.30;79.65;102593.06;5036671;28;20041;-79
2022/03/02 05:36:25;;;;;;;24.63;15.07;;;;;;;5.30;79.63;102589.59;5037682;28;20285;-79
2022/03/02 05:38:54;;;;;;;23.17;14.85;;;;;;;5.32;79.74;102587.88;5036681;28;20048;-79
2022/03/02 05:41:20;;;;;;;;;;;;;;;5.31;79.71;102592.22;5037577;28;20332;-79
2022/03/02 05:43:47;;;;;;;34.00;17.10;;;;;;;5.29;79.64;102588.72;5036416;28;20303;-79
2022/03/02 05:46:12;;;;;;;23.83;15.02;;;;;;;5.30;79.80;102582.66;5018926;28;20074;-79
2022/03/02 05:48:38;;;;;;;20.52;14.38;;;;;;;5.30;79.78;102581.81;5019477;28;20488;-79
2022/03/02 05:51:04;;;;;;;28.73;18.17;;;;;;;5.27;79.32;102593.03;5036921;28;20096;-79
2022/03/02 05:53:29;;;;;;;24.45;16.58;;;;;;;5.25;79.23;102586.09;5019830;28;20036;-79
2022/03/02 05:55:54;;;;;;;24.77;17.17;;;;;;;5.25;79.45;102586.94;5036955;28;20049;-79
2022/03/02 05:58:20;;;;;;;24.73;15.68;;;;;;;5.25;79.64;102586.09;5018908;28;20309;-79
2022/03/02 06:00:45;;;;;;;26.10;16.90;;;;;;;5.24;79.31;102592.13;5037090;28;20029;-79
2022/03/02 06:03:11;;;;;;;32.13;19.42;;;;;;;5.19;78.31;102594.69;5036806;28;20037;-79
2022/03/02 06:05:36;;;;;;;28.70;17.95;;;;;;;5.20;78.97;102593.81;5003010;28;20066;-79
2022/03/02 06:08:02;;;;;;;25.65;16.30;;;;;;;5.20;79.11;102593.81;5037993;28;20222;-79
2022/03/02 06:10:28;;;;;;;25.42;15.50;;;;;;;5.19;79.17;102592.97;5040477;28;20044;-78
2022/03/02 06:12:53;;;;;;;26.05;16.45;;;;;;;5.20;79.00;102591.22;5040311;28;20357;-78
2022/03/02 06:15:19;;;;;;;27.50;16.92;;;;;;;5.18;78.67;102596.44;5040430;28;20057;-79
2022/03/02 06:17:44;;;;;;;28.98;17.95;;;;;;;5.15;78.33;102596.38;5022673;28;20053;-79
2022/03/02 06:20:11;;;;;;;29.60;18.20;;;;;;;5.10;78.21;102590.28;5039566;28;20041;-79
2022/03/02 06:22:37;;;;;;;25.75;17.27;;;;;;;5.11;78.48;102591.13;5040257;28;20048;-79
2022/03/02 06:25:04;;;;;;;29.10;18.80;;;;;;;5.09;78.53;102590.25;5005609;28;20402;-79
2022/03/02 06:27:30;;;;;;;25.65;16.70;;;;;;;5.09;78.63;102598.03;5039871;28;20041;-79
2022/03/02 06:29:55;;;;;;;24.88;16.38;;;;;;;5.10;78.79;102599.78;5038010;28;20060;-79
2022/03/02 06:32:20;;;;;;;23.20;16.13;;;;;;;5.08;78.58;102594.59;5038688;28;20104;-79
2022/03/02 06:34:46;;;;;;;27.27;16.65;;;;;;;5.07;78.39;102598.03;5017132;28;20037;-79
2022/03/02 06:37:12;;;;;;;26.60;16.92;;;;;;;5.05;78.12;102599.72;5023770;28;20045;-78
2022/03/02 06:39:38;;;;;;;28.83;17.13;;;;;;;5.06;78.40;102604.09;5038020;28;20391;-79
2022/03/02 06:42:11;;;;;;;26.92;16.77;;;;;;;5.05;78.50;102604.94;5038157;28;20037;-79
2022/03/02 06:44:56;;;;;;;20.88;14.65;;;;;;;5.07;78.70;102607.53;5022507;28;20033;-78
2022/03/02 06:47:27;;;;;;;29.73;18.50;;;;;;;5.04;78.10;102613.59;5038217;28;20352;-78
2022/03/02 06:49:55;;;;;;;28.15;17.38;;;;;;;5.06;78.68;102608.38;5037806;28;20041;-78
2022/03/02 06:52:25;;;;;;;23.27;16.13;;;;;;;5.07;78.71;102608.41;5037761;28;20337;-78
2022/03/02 06:54:50;;;;;;;22.20;15.32;;;;;;;5.07;78.72;102602.34;5037709;28;20096;-78
2022/03/02 06:57:18;;;;;;;23.50;15.70;;;;;;;5.09;78.67;102616.22;5038080;28;20041;-78
2022/03/02 06:59:52;;;;;;;24.87;15.97;;;;;;;5.07;78.45;102618.78;5037615;28;20033;-78
2022/03/02 07:03:00;;;;;;;28.67;18.77;;;;;;;5.02;77.46;102625.69;5038279;28;20040;-78
2022/03/02 07:05:26;;;;;;;25.33;18.08;;;;;;;5.03;77.56;102621.38;5038199;28;20045;-78
2022/03/02 07:07:52;;;;;;;29.88;18.65;;;;;;;5.03;77.37;102623.97;5003565;28;20044;-79
2022/03/02 07:10:17;;;;;;;25.00;16.95;;;;;;;5.00;77.34;102622.19;5037755;28;20041;-79
2022/03/02 07:12:43;;;;;;;33.67;19.98;;;;;;;4.97;77.18;102620.44;5037062;28;20359;-79
2022/03/02 07:15:09;;;;;;;24.88;16.23;;;;;;;4.99;77.42;102621.31;5019102;28;20084;-79
2022/03/02 07:17:35;;;;;;;30.48;17.55;;;;;;;5.01;77.39;102629.13;5019215;28;20034;-79
2022/03/02 07:20:04;;;;;;;25.77;16.35;;;;;;;5.02;77.66;102620.50;5019037;28;20319;-78
2022/03/02 07:22:32;;;;;;;25.67;16.05;;;;;;;5.03;77.86;102617.03;5037472;28;20327;-78
2022/03/02 07:25:24;;;;;;;25.67;15.48;;;;;;;5.04;77.93;102618.78;5037521;28;20029;-79
2022/03/02 07:27:50;;;;;;;26.42;16.65;;;;;;;5.06;77.81;102617.06;5037561;28;20317;-79
2022/03/02 07:30:16;;;;;;;30.55;18.20;;;;;;;5.06;77.87;102617.06;5019121;28;20040;-79
2022/03/02 07:32:45;;;;;;;29.83;17.42;;;;;;;5.07;77.69;102615.34;4997886;28;20045;-79
2022/03/02 07:35:12;;;;;;;27.73;18.27;;;;;;;5.09;77.74;102611.88;5036083;28;20048;-79
2022/03/02 07:37:39;;;;;;;28.58;17.10;;;;;;;5.09;77.36;102619.69;5028139;28;20053;-78
2022/03/02 07:40:06;;;;;;;27.17;16.50;;;;;;;5.10;77.96;102616.25;5035879;28;20391;-79
2022/03/02 07:42:32;;;;;;;25.48;16.42;;;;;;;5.12;77.47;102611.94;5035257;28;20261;-79
2022/03/02 07:44:58;;;;;;;28.48;16.98;;;;;;;5.11;77.12;102618.00;5009192;28;20042;-78
2022/03/02 07:47:24;;;;;;;24.50;16.77;;;;;;;5.11;76.58;102622.31;5034657;28;20342;-79
2022/03/02 07:49:51;;;;;;;24.98;17.02;;;;;;;5.11;76.10;102622.31;5034070;28;20104;-79
2022/03/02 07:52:17;;;;;;;27.90;17.90;;;;;;;5.08;76.32;102612.75;5036013;28;20037;-79
2022/03/02 07:54:43;;;;;;;24.92;15.60;;;;;;;5.08;74.99;102615.34;5036750;28;20100;-79
2022/03/02 07:57:11;;;;;;;27.90;17.15;;;;;;;5.08;75.00;102620.56;5017391;28;20036;-78
2022/03/02 07:59:39;;;;;;;32.93;18.13;;;;;;;5.09;74.70;102616.22;5036153;28;20049;-78
2022/03/02 08:02:07;;;;;;;24.25;16.17;;;;;;;5.07;73.66;102621.41;5016498;28;20341;-78
2022/03/02 08:04:34;;;;;;;26.48;15.88;;;;;;;5.06;73.30;102614.47;5031742;28;20063;-78
2022/03/02 08:07:00;;;;;;;24.73;15.65;;;;;;;5.10;74.21;102617.97;5033027;28;20352;-79
2022/03/02 08:09:25;;;;;;;27.48;16.40;;;;;;;5.08;73.41;102622.28;5019250;28;20037;-79
2022/03/02 08:11:51;;;;;;;26.00;16.50;;;;;;;5.08;72.74;102623.16;5034891;28;20100;-79
2022/03/02 08:14:18;;;;;;;25.58;16.00;;;;;;;5.07;72.55;102612.75;5017995;28;20052;-79
2022/03/02 08:16:45;;;;;;;23.33;14.45;;;;;;;5.05;72.44;102610.13;5033047;28;20108;-78
2022/03/02 08:19:11;;;;;;;24.80;15.45;;;;;;;5.06;72.60;102611.88;5024035;28;20112;-79
2022/03/02 08:21:41;;;;;;;24.60;16.33;;;;;;;5.05;72.56;102610.13;5029550;28;20041;-79
2022/03/02 08:24:09;;;;;;;25.63;16.25;;;;;;;5.06;72.41;102617.06;5023056;28;20091;-79
2022/03/02 08:26:37;;;;;;;24.65;14.73;;;;;;;5.08;72.73;102619.69;5033745;28;20160;-79
2022/03/02 08:29:08;;;;;;;25.42;16.05;;;;;;;5.08;71.80;102622.28;5034605;28;20080;-79
2022/03/02 08:31:39;;;;;;;25.30;15.65;;;;;;;5.09;72.44;102630.06;5030596;28;20029;-79
2022/03/02 08:34:09;;;;;;;21.75;14.40;;;;;;;5.07;72.58;102618.78;5030014;28;20114;-79
2022/03/02 08:36:35;;;;;;;25.60;15.63;;;;;;;5.07;71.43;102620.53;5025278;28;20344;-79
2022/03/02 08:39:05;;;;;;;23.63;14.40;;;;;;;5.06;71.73;102622.28;5017798;28;20045;-79
2022/03/02 08:41:32;;;;;;;28.85;16.77;;;;;;;5.05;71.50;102614.44;5017085;28;20124;-79
2022/03/02 08:43:58;;;;;;;25.33;15.77;;;;;;;5.06;71.72;102619.66;5016721;28;20033;-79
2022/03/02 08:46:24;;;;;;;23.73;14.88;;;;;;;5.08;71.92;102609.31;5034335;28;20052;-79
2022/03/02 08:48:50;;;;;;;29.80;16.55;;;;;;;5.08;70.40;102612.75;5033023;28;20029;-79
2022/03/02 08:51:17;;;;;;;22.83;14.43;;;;;;;5.09;70.65;102613.63;5015016;28;20052;-79
2022/03/02 08:53:44;;;;;;;23.67;14.90;;;;;;;5.11;70.50;102610.22;5034555;28;20139;-79
2022/03/02 08:56:10;;;;;;;24.92;14.93;;;;;;;5.12;70.17;102609.34;5016616;28;20342;-79
2022/03/02 08:58:37;;;;;;;22.60;14.52;;;;;;;5.12;69.88;102604.13;5034290;28;20056;-79
2022/03/02 09:01:02;;;;;;;23.25;14.48;;;;;;;5.14;69.61;102598.97;5031983;28;20045;-79
2022/03/02 09:03:33;;;;;;;22.95;15.02;;;;;;;5.13;69.64;102605.91;5032072;28;20101;-79
2022/03/02 09:06:01;;;;;;;21.35;13.60;;;;;;;5.16;69.22;102603.31;5028556;28;20090;-79
2022/03/02 09:08:27;;;;;;;26.60;14.30;;;;;;;5.17;67.89;102605.06;5026336;28;20037;-79
2022/03/02 09:10:53;;;;;;;24.50;15.25;;;;;;;5.23;68.56;102598.19;5016500;28;20294;-79
2022/03/02 09:13:18;;;;;;;20.92;13.77;;;;;;;5.26;67.51;102595.63;5012928;28;20068;-79
2022/03/02 09:15:44;;;;;;;25.40;13.98;;;;;;;5.29;67.59;102593.03;5010066;28;20250;-79
2022/03/02 09:18:10;;;;;;;21.80;13.65;;;;;;;5.30;67.55;102590.47;5012958;28;20048;-78
2022/03/02 09:20:38;;;;;;;20.35;12.98;;;;;;;5.34;66.35;102587.03;5030301;28;20056;-78
2022/03/02 09:23:04;;;;;;;20.27;12.93;;;;;;;5.36;65.91;102582.72;5032419;28;20046;-78
2022/03/02 09:25:31;;;;;;;23.63;13.07;;;;;;;5.41;65.14;102590.56;5034432;28;20124;-78
2022/03/02 09:27:57;;;;;;;19.98;12.48;;;;;;;5.42;65.04;102586.22;5034754;28;20047;-78
2022/03/02 09:30:23;;;;;;;17.02;12.23;;;;;;;5.45;64.80;102587.13;5029567;28;20042;-78
2022/03/02 09:32:52;;;;;;;21.45;12.90;;;;;;;5.50;65.01;102587.19;5016323;28;20308;-78
2022/03/02 09:35:20;;;;;;;23.83;12.63;;;;;;;5.58;63.77;102588.09;5034842;28;20237;-78
2022/03/02 09:37:53;;;;;;;18.47;12.27;;;;;;;5.59;62.67;102589.84;5035126;28;20351;-78
2022/03/02 09:40:30;;;;;;;19.40;12.25;;;;;;;5.64;63.20;102588.16;5006808;28;20140;-78
2022/03/02 09:43:01;;;;;;;22.42;13.32;;;;;;;5.69;63.77;102585.59;5034720;28;20056;-78
2022/03/02 09:45:31;;;;;;;22.33;13.50;;;;;;;5.74;63.41;102589.97;5012095;28;20040;-78
2022/03/02 09:47:58;;;;;;;36.97;18.55;;;;;;;5.79;63.35;102591.75;5037587;28;20045;-79
2022/03/02 09:50:33;;;;;;;44.25;22.13;;;;;;;5.80;62.63;102585.66;5035534;28;20340;-78
2022/03/02 09:53:02;;;;;;;46.28;23.98;;;;;;;5.84;62.98;102580.50;5014462;28;20037;-79
2022/03/02 09:55:28;;;;;;;60.05;24.95;;;;;;;5.88;62.39;102584.88;5040107;28;20241;-79
2022/03/02 09:57:57;;;;;;;45.47;19.52;;;;;;;5.90;61.99;102585.75;5020623;28;20048;-79
2022/03/02 10:00:23;;;;;;;;;;;;;;;5.91;62.14;102577.09;5020428;28;20045;-78
2022/03/02 10:02:51;;;;;;;30.48;14.15;;;;;;;5.95;61.17;102575.38;5018984;28;19927;-78
2022/03/02 10:05:26;;;;;;;23.03;13.27;;;;;;;5.97;61.92;102576.28;5046899;28;20041;-78
2022/03/02 10:07:58;;;;;;;20.45;12.30;;;;;;;5.99;61.12;102582.38;5027578;28;20091;-78
2022/03/02 10:10:24;;;;;;;21.65;11.70;;;;;;;6.04;60.54;102575.47;5037767;28;20355;-79
2022/03/02 10:12:51;;;;;;;19.73;11.85;;;;;;;6.09;60.61;102570.28;5019494;28;20045;-79
2022/03/02 10:15:18;;;;;;;19.42;12.00;;;;;;;6.11;59.57;102586.75;5037202;28;20063;-79
2022/03/02 10:17:46;;;;;;;19.08;11.98;;;;;;;6.13;59.53;102580.72;5036440;28;20045;-79
2022/03/02 10:20:16;;;;;;;24.17;12.13;;;;;;;6.15;59.32;102581.59;5015573;28;20037;-79
2022/03/02 10:22:56;;;;;;;18.13;12.13;;;;;;;6.19;60.46;102576.41;5035982;28;20255;-79
2022/03/02 10:25:33;;;;;;;19.90;12.07;;;;;;;6.25;60.11;102573.84;5019531;28;20061;-79
2022/03/02 10:28:04;;;;;;;21.48;11.98;;;;;;;6.28;60.29;102574.72;5026898;28;20037;-79
2022/03/02 10:30:33;;;;;;;20.50;12.52;;;;;;;6.31;59.87;102566.94;5038231;28;20037;-79
2022/03/02 10:33:17;;;;;;;19.35;11.77;;;;;;;6.34;60.00;102566.94;5038933;28;20044;-79
2022/03/02 10:35:51;;;;;;;17.17;11.60;;;;;;;6.40;60.29;102567.84;5036432;28;20224;-79
2022/03/02 10:38:35;;;;;;;21.92;12.73;;;;;;;6.42;60.44;102566.09;5037723;28;20033;-79
2022/03/02 10:41:02;;;;;;;20.60;12.20;;;;;;;6.46;60.48;102560.06;5026066;28;20056;-79
2022/03/02 10:43:41;;;;;;;20.35;12.45;;;;;;;6.48;60.10;102558.34;5017925;28;20060;-79
2022/03/02 10:46:10;;;;;;;21.75;13.45;;;;;;;6.49;60.35;102560.94;5004533;28;20101;-79
2022/03/02 10:48:38;;;;;;;22.75;12.95;;;;;;;6.50;60.96;102556.59;5014403;28;20145;-79
2022/03/02 10:51:06;;;;;;;22.95;12.70;;;;;;;6.58;60.85;102556.63;5033272;28;20030;-79
2022/03/02 10:53:36;;;;;;;18.50;11.95;;;;;;;6.61;60.86;102549.69;5036287;28;20096;-79
2022/03/02 10:56:04;;;;;;;18.58;11.85;;;;;;;6.67;60.74;102551.44;5036803;28;20047;-79
2022/03/02 10:58:30;;;;;;;19.90;11.82;;;;;;;6.70;60.73;102548.88;5030451;28;20056;-79
2022/03/02 11:00:58;;;;;;;19.65;12.38;;;;;;;6.72;61.02;102549.72;5036717;28;20079;-79
2022/03/02 11:03:27;;;;;;;17.77;12.68;;;;;;;6.79;61.02;102541.06;5004724;28;20030;-79
2022/03/02 11:05:59;;;;;;;21.80;12.60;;;;;;;6.83;60.88;102541.94;5036980;28;20040;-79
2022/03/02 11:08:25;;;;;;;21.73;13.27;;;;;;;6.86;61.18;102541.97;5037111;28;20045;-79
2022/03/02 11:10:50;;;;;;;20.60;12.80;;;;;;;6.89;61.10;102532.41;5035204;28;20052;-79
2022/03/02 11:13:16;;;;;;;19.23;12.63;;;;;;;6.94;60.91;102536.75;5036271;28;20246;-79
2022/03/02 11:15:47;;;;;;;20.50;12.75;;;;;;;6.96;60.72;102535.03;5018694;28;20056;-79